Time;durP1;ratioP1;P1;durP2;ratioP2;P2;SDS_P1;SDS_P2;PMS_P1;PMS_P2;Temp;Humidity;BMP_temperature;BMP_pressure;BME280_temperature;BME280_humidity;BME280_pressure;Samples;Min_cycle;Max_cycle;Signal;HPM_P1;HPM_P2
2021/06/15 00:00:34;;;;;;;7.53;4.38;;;16.50;67.10;;;;;;5009183;28;20017;-65
2021/06/15 00:02:59;;;;;;;7.07;4.40;;;16.50;67.20;;;;;;5043547;28;20021;-65
2021/06/15 00:05:25;;;;;;;8.05;4.65;;;16.50;67.10;;;;;;5043505;28;20083;-65
2021/06/15 00:07:50;;;;;;;7.63;4.38;;;16.20;67.70;;;;;;5042880;28;20064;-65
2021/06/15 00:10:18;;;;;;;12.85;4.53;;;16.30;67.70;;;;;;5042988;28;20037;-65
2021/06/15 00:12:44;;;;;;;8.02;4.47;;;16.30;67.70;;;;;;5042932;28;20071;-65
2021/06/15 00:15:10;;;;;;;8.25;4.28;;;16.30;67.90;;;;;;5044117;28;20029;-65
2021/06/15 00:17:36;;;;;;;8.30;4.82;;;16.30;67.60;;;;;;5046820;28;20037;-65
2021/06/15 00:20:02;;;;;;;7.70;3.90;;;16.30;67.60;;;;;;5046845;28;20213;-65
2021/06/15 00:22:28;;;;;;;8.82;4.97;;;16.30;67.90;;;;;;5046683;28;20034;-65
2021/06/15 00:24:53;;;;;;;8.35;4.50;;;16.30;68.00;;;;;;5028833;28;20036;-65
2021/06/15 00:27:19;;;;;;;9.60;4.55;;;16.20;68.10;;;;;;5046230;28;20036;-64
2021/06/15 00:29:44;;;;;;;8.52;4.22;;;16.30;68.20;;;;;;5047043;28;20022;-65
2021/06/15 00:32:10;;;;;;;6.57;4.45;;;16.10;68.40;;;;;;5046685;28;20034;-65
2021/06/15 00:34:35;;;;;;;7.75;4.40;;;16.10;68.70;;;;;;5046583;28;20036;-65
2021/06/15 00:37:01;;;;;;;6.07;4.10;;;16.10;68.80;;;;;;5046476;28;20026;-65
2021/06/15 00:39:26;;;;;;;6.72;4.15;;;16.10;68.70;;;;;;5045911;28;20045;-65
2021/06/15 00:41:52;;;;;;;8.65;4.45;;;16.10;68.50;;;;;;5046774;28;20026;-65
2021/06/15 00:44:17;;;;;;;7.03;4.43;;;15.90;68.40;;;;;;5046543;28;20034;-65
2021/06/15 00:46:43;;;;;;;8.30;4.10;;;15.80;68.80;;;;;;5046212;28;20332;-65
2021/06/15 00:49:08;;;;;;;5.40;4.03;;;15.90;68.50;;;;;;5046119;28;20033;-65
2021/06/15 00:51:35;;;;;;;8.05;4.28;;;16.00;68.50;;;;;;5045750;28;20029;-65
2021/06/15 00:54:01;;;;;;;6.93;4.13;;;15.80;68.30;;;;;;5028913;28;20030;-65
2021/06/15 00:56:27;;;;;;;5.75;3.80;;;15.80;68.60;;;;;;5028763;28;20299;-65
2021/06/15 00:58:53;;;;;;;7.68;4.53;;;15.80;68.30;;;;;;5046052;28;20037;-65
2021/06/15 01:01:18;;;;;;;6.30;4.43;;;15.80;68.30;;;;;;5045717;28;20229;-65
2021/06/15 01:03:44;;;;;;;6.63;4.40;;;15.80;68.20;;;;;;5045720;28;20211;-66
2021/06/15 01:06:12;;;;;;;9.10;4.72;;;15.70;68.20;;;;;;5028830;28;20216;-65
2021/06/15 01:08:48;;;;;;;7.18;4.35;;;15.40;69.00;;;;;;5028544;28;20038;-65
2021/06/15 01:11:32;;;;;;;7.53;4.57;;;15.30;69.60;;;;;;5046035;28;20039;-65
2021/06/15 01:14:08;;;;;;;6.60;4.22;;;15.50;68.90;;;;;;5028368;28;20398;-65
2021/06/15 01:16:41;;;;;;;6.68;3.90;;;15.60;68.30;;;;;;5029237;28;20037;-65
2021/06/15 01:19:42;;;;;;;6.80;3.88;;;15.50;68.10;;;;;;5028102;28;20044;-65
2021/06/15 01:22:55;;;;;;;7.88;4.13;;;15.30;68.30;;;;;;4965523;28;20051;-65
2021/06/15 01:25:44;;;;;;;7.13;4.10;;;15.30;68.60;;;;;;4965299;28;20043;-65
2021/06/15 01:28:24;;;;;;;7.75;4.35;;;15.30;69.00;;;;;;5022875;28;20037;-65
2021/06/15 01:31:01;;;;;;;7.40;4.25;;;15.40;68.70;;;;;;5028409;28;20041;-65
2021/06/15 01:33:26;;;;;;;8.68;4.28;;;15.50;68.60;;;;;;5027481;28;20037;-65
2021/06/15 01:35:52;;;;;;;6.45;4.20;;;15.30;68.60;;;;;;5011961;28;20339;-65
2021/06/15 01:38:18;;;;;;;6.85;4.00;;;15.30;68.60;;;;;;5011364;28;20041;-65
2021/06/15 01:40:58;;;;;;;8.73;4.47;;;15.20;68.90;;;;;;5027418;28;20100;-65
2021/06/15 01:43:35;;;;;;;5.00;4.07;;;15.30;68.70;;;;;;5029169;28;20112;-65
2021/06/15 01:46:02;;;;;;;7.85;4.57;;;15.30;68.70;;;;;;5044807;28;20034;-65
2021/06/15 01:48:42;;;;;;;6.88;4.47;;;15.30;68.70;;;;;;5044769;28;20033;-65
2021/06/15 01:51:09;;;;;;;5.25;3.78;;;15.30;68.50;;;;;;5027881;28;20029;-65
2021/06/15 01:53:36;;;;;;;5.47;4.30;;;15.30;68.50;;;;;;5027617;28;20208;-65
2021/06/15 01:56:04;;;;;;;6.72;4.03;;;15.20;68.40;;;;;;5011243;28;20036;-65
2021/06/15 01:58:33;;;;;;;6.38;4.25;;;15.30;68.40;;;;;;5027203;28;20029;-65
2021/06/15 02:00:58;;;;;;;9.93;4.55;;;15.20;68.40;;;;;;5027592;28;20100;-65
2021/06/15 02:03:25;;;;;;;6.07;4.03;;;15.20;68.40;;;;;;5044769;28;20025;-64
2021/06/15 02:05:53;;;;;;;7.07;4.30;;;15.20;68.30;;;;;;5027268;28;20033;-65
2021/06/15 02:08:22;;;;;;;8.50;4.72;;;15.00;68.50;;;;;;5027329;28;20041;-65
2021/06/15 02:10:48;;;;;;;6.10;4.45;;;15.00;68.60;;;;;;5027140;28;20068;-65
2021/06/15 02:13:14;;;;;;;6.78;3.92;;;14.90;68.40;;;;;;5026812;28;20049;-65
2021/06/15 02:15:39;;;;;;;7.43;4.30;;;15.00;68.50;;;;;;5026830;28;20026;-65
2021/06/15 02:18:05;;;;;;;6.78;4.20;;;14.90;68.40;;;;;;4994603;28;20037;-65
2021/06/15 02:20:33;;;;;;;5.93;4.10;;;14.70;68.50;;;;;;5027194;28;20033;-65
2021/06/15 02:23:01;;;;;;;6.43;4.30;;;14.70;68.40;;;;;;5027049;28;20033;-65
2021/06/15 02:25:29;;;;;;;7.82;4.38;;;14.80;68.40;;;;;;5026913;28;20270;-65
2021/06/15 02:27:55;;;;;;;7.72;4.43;;;14.90;68.30;;;;;;5026722;28;20212;-65
2021/06/15 02:30:22;;;;;;;7.78;4.13;;;14.90;68.00;;;;;;5026515;28;20033;-65
2021/06/15 02:32:48;;;;;;;6.28;4.38;;;14.90;67.80;;;;;;5044486;28;20321;-65
2021/06/15 02:35:14;;;;;;;5.95;4.03;;;14.90;67.70;;;;;;5026944;28;20083;-65
2021/06/15 02:37:45;;;;;;;7.95;4.30;;;14.80;68.00;;;;;;5009601;28;20340;-65
2021/06/15 02:40:11;;;;;;;9.80;4.20;;;14.80;68.10;;;;;;5043582;28;20041;-65
2021/06/15 02:42:41;;;;;;;4.90;3.70;;;14.90;67.90;;;;;;5009925;28;20102;-65
2021/06/15 02:45:07;;;;;;;7.80;4.45;;;14.90;67.70;;;;;;5044551;28;20070;-65
2021/06/15 02:47:33;;;;;;;9.25;4.18;;;14.80;67.70;;;;;;5026961;28;20049;-65
2021/06/15 02:49:59;;;;;;;4.97;4.10;;;14.80;67.70;;;;;;5026262;28;20033;-65
2021/06/15 02:52:45;;;;;;;7.40;4.15;;;14.80;67.90;;;;;;5009929;28;20060;-65
2021/06/15 02:55:19;;;;;;;5.38;3.88;;;14.80;67.90;;;;;;5011052;28;20025;-65
2021/06/15 02:57:47;;;;;;;8.02;4.35;;;14.80;67.70;;;;;;5026494;28;20093;-65
2021/06/15 03:00:13;;;;;;;7.22;4.10;;;14.70;67.70;;;;;;5044149;28;20057;-65
2021/06/15 03:02:38;;;;;;;6.35;4.20;;;14.60;67.70;;;;;;5044106;28;20194;-65
2021/06/15 03:05:06;;;;;;;5.43;4.30;;;14.60;67.70;;;;;;5044035;28;20042;-65
2021/06/15 03:07:32;;;;;;;7.07;4.40;;;14.60;68.10;;;;;;5043423;28;20340;-65
2021/06/15 03:10:01;;;;;;;5.93;3.75;;;14.60;67.80;;;;;;5026177;28;20239;-65
2021/06/15 03:12:26;;;;;;;6.32;4.40;;;14.50;68.10;;;;;;5025969;28;20088;-65
2021/06/15 03:15:07;;;;;;;7.20;4.20;;;14.60;68.00;;;;;;5044235;28;20029;-65
2021/06/15 03:17:33;;;;;;;7.30;4.47;;;14.50;67.70;;;;;;5043980;28;20037;-65
2021/06/15 03:20:09;;;;;;;6.88;4.38;;;14.40;68.00;;;;;;5010138;28;20038;-65
2021/06/15 03:22:44;;;;;;;6.97;4.40;;;14.40;68.10;;;;;;5026411;28;20370;-65
2021/06/15 03:25:10;;;;;;;6.60;4.20;;;14.40;68.30;;;;;;5026097;28;20072;-65
2021/06/15 03:27:39;;;;;;;7.80;3.70;;;14.40;68.30;;;;;;5009736;28;20081;-65
2021/06/15 03:30:12;;;;;;;5.35;4.15;;;14.40;68.40;;;;;;5026458;28;20255;-65
2021/06/15 03:32:56;;;;;;;8.45;4.57;;;14.40;68.30;;;;;;5010028;28;20377;-65
2021/06/15 03:35:23;;;;;;;5.82;4.20;;;14.40;68.40;;;;;;5026138;28;20049;-65
2021/06/15 03:37:50;;;;;;;9.65;4.43;;;14.30;68.80;;;;;;5026445;28;20084;-65
2021/06/15 03:40:16;;;;;;;6.93;4.38;;;14.40;68.60;;;;;;5009309;28;20033;-65
2021/06/15 03:42:42;;;;;;;6.40;4.10;;;14.40;68.60;;;;;;5009366;28;20095;-65
2021/06/15 03:45:09;;;;;;;6.57;3.83;;;14.30;68.50;;;;;;5026193;28;20333;-65
2021/06/15 03:47:36;;;;;;;8.07;4.25;;;14.30;68.80;;;;;;5026258;28;20042;-65
2021/06/15 03:50:02;;;;;;;7.68;4.28;;;14.30;68.80;;;;;;5026028;28;20040;-66
2021/06/15 03:52:34;;;;;;;8.27;4.55;;;14.30;69.10;;;;;;5046990;28;20033;-67
2021/06/15 03:54:59;;;;;;;8.93;4.13;;;14.30;69.40;;;;;;5047052;28;20395;-66
2021/06/15 03:57:26;;;;;;;8.18;4.20;;;14.30;69.60;;;;;;5029305;28;20041;-65
2021/06/15 03:59:51;;;;;;;8.90;4.22;;;14.30;69.60;;;;;;5030047;28;20331;-66
2021/06/15 04:02:17;;;;;;;8.40;4.68;;;14.40;69.60;;;;;;5029322;28;20033;-67
2021/06/15 04:04:43;;;;;;;6.10;4.60;;;14.40;69.70;;;;;;5029540;28;20041;-66
2021/06/15 04:07:14;;;;;;;4.75;3.83;;;14.40;69.60;;;;;;5029100;28;20048;-66
2021/06/15 04:09:39;;;;;;;6.22;4.40;;;14.40;69.70;;;;;;5014043;28;20182;-66
2021/06/15 04:12:06;;;;;;;7.93;4.72;;;14.40;69.80;;;;;;5030201;28;20052;-67
2021/06/15 04:14:31;;;;;;;7.20;4.32;;;14.50;69.90;;;;;;5029593;28;20045;-67
2021/06/15 04:16:57;;;;;;;8.32;4.05;;;14.40;69.60;;;;;;5028981;28;20101;-66
2021/06/15 04:19:30;;;;;;;8.48;4.38;;;14.50;69.60;;;;;;5046824;28;20037;-66
2021/06/15 04:21:59;;;;;;;7.70;4.22;;;14.50;69.90;;;;;;5028706;28;20029;-66
2021/06/15 04:24:25;;;;;;;8.07;4.32;;;14.50;69.70;;;;;;5046585;28;20075;-66
2021/06/15 04:26:52;;;;;;;7.03;4.28;;;14.60;69.80;;;;;;5047000;28;20332;-67
2021/06/15 04:29:18;;;;;;;7.20;4.60;;;14.50;69.90;;;;;;5029422;28;20034;-66
2021/06/15 04:31:44;;;;;;;8.32;4.40;;;14.50;70.20;;;;;;5028364;28;20097;-67
2021/06/15 04:34:09;;;;;;;8.40;4.78;;;14.60;70.40;;;;;;5012391;28;20029;-66
2021/06/15 04:36:35;;;;;;;11.98;4.80;;;14.50;70.80;;;;;;5046618;28;20037;-67
2021/06/15 04:39:05;;;;;;;7.13;4.55;;;14.60;71.20;;;;;;5046596;28;20051;-67
2021/06/15 04:41:38;;;;;;;6.57;4.10;;;14.60;71.30;;;;;;5046478;28;20037;-67
2021/06/15 04:44:06;;;;;;;7.38;4.28;;;14.70;71.60;;;;;;5046415;28;20044;-67
2021/06/15 04:46:34;;;;;;;9.18;4.70;;;14.80;71.60;;;;;;5028585;28;20100;-67
2021/06/15 04:49:35;;;;;;;6.70;4.32;;;14.70;71.50;;;;;;5045929;28;20033;-67
2021/06/15 04:52:02;;;;;;;6.43;4.55;;;14.80;71.70;;;;;;5028487;28;20030;-67
2021/06/15 04:54:38;;;;;;;6.88;4.60;;;14.90;71.50;;;;;;5045860;28;20071;-66
2021/06/15 04:57:07;;;;;;;9.15;4.50;;;15.00;71.40;;;;;;5012584;28;20033;-67
2021/06/15 04:59:33;;;;;;;11.57;4.63;;;15.00;71.80;;;;;;5028624;28;20045;-67
2021/06/15 05:01:59;;;;;;;8.40;4.40;;;15.20;71.70;;;;;;5045805;28;20041;-67
2021/06/15 05:04:24;;;;;;;8.77;4.60;;;15.10;71.80;;;;;;5045852;28;20037;-67
2021/06/15 05:06:50;;;;;;;7.30;4.10;;;15.10;71.90;;;;;;5045496;28;20037;-68
2021/06/15 05:09:16;;;;;;;13.45;4.65;;;15.10;71.70;;;;;;5012431;28;20029;-68
2021/06/15 05:11:41;;;;;;;8.30;4.30;;;15.20;71.70;;;;;;5028456;28;20101;-66
2021/06/15 05:14:09;;;;;;;8.55;4.47;;;15.20;71.70;;;;;;5012021;28;20053;-66
2021/06/15 05:16:35;;;;;;;6.95;4.30;;;15.30;71.20;;;;;;5045807;28;20033;-67
2021/06/15 05:19:01;;;;;;;7.43;4.05;;;15.30;70.80;;;;;;5045491;28;20372;-67
2021/06/15 05:21:48;;;;;;;6.03;4.30;;;15.30;70.30;;;;;;5045292;28;20040;-66
2021/06/15 05:24:49;;;;;;;6.68;4.05;;;15.40;70.40;;;;;;5028087;28;20030;-68
2021/06/15 05:27:19;;;;;;;8.38;4.38;;;15.40;70.70;;;;;;5020942;28;20305;-66
2021/06/15 05:29:45;;;;;;;6.72;3.70;;;15.40;70.10;;;;;;5028506;28;20029;-66
2021/06/15 05:32:10;;;;;;;10.40;3.67;;;15.60;70.70;;;;;;5044613;28;20043;-66
2021/06/15 05:34:36;;;;;;;8.77;4.20;;;15.60;70.30;;;;;;5044998;28;20033;-66
2021/06/15 05:37:03;;;;;;;7.57;3.92;;;15.70;70.00;;;;;;5045294;28;20041;-66
2021/06/15 05:39:29;;;;;;;7.88;3.63;;;15.70;70.30;;;;;;5044730;28;20104;-65
2021/06/15 05:41:55;;;;;;;7.28;3.80;;;15.80;69.80;;;;;;5045310;28;20025;-66
2021/06/15 05:44:20;;;;;;;5.60;3.80;;;15.70;69.30;;;;;;5045369;28;20061;-66
2021/06/15 05:46:46;;;;;;;5.93;3.85;;;15.90;69.30;;;;;;5045219;28;20041;-66
2021/06/15 05:49:11;;;;;;;6.53;3.60;;;15.90;69.10;;;;;;5044698;28;20029;-66
2021/06/15 05:51:38;;;;;;;7.53;3.70;;;16.00;68.80;;;;;;5044891;28;20048;-66
2021/06/15 05:54:04;;;;;;;6.93;3.78;;;16.20;68.40;;;;;;5027604;28;20053;-66
2021/06/15 05:56:30;;;;;;;5.57;3.85;;;16.20;68.50;;;;;;5027760;28;20221;-66
2021/06/15 05:58:55;;;;;;;9.68;3.70;;;16.30;68.50;;;;;;5044788;28;20064;-66
2021/06/15 06:01:21;;;;;;;11.80;4.10;;;16.30;68.40;;;;;;5044656;28;20041;-66
2021/06/15 06:03:55;;;;;;;6.25;3.95;;;16.40;68.20;;;;;;5044554;28;20056;-66
2021/06/15 06:09:06;;;;;;;7.35;3.50;;;16.40;67.80;;;;;;5044863;28;20264;-66
2021/06/15 06:11:31;;;;;;;9.07;4.30;;;16.60;67.50;;;;;;5044813;28;20208;-66
2021/06/15 06:13:57;;;;;;;7.88;3.75;;;16.70;67.50;;;;;;5043669;28;20053;-66
2021/06/15 06:16:22;;;;;;;5.85;3.55;;;16.80;67.70;;;;;;5044219;28;20041;-66
2021/06/15 06:18:48;;;;;;;10.50;3.63;;;16.80;66.60;;;;;;5044447;28;20034;-66
2021/06/15 06:21:14;;;;;;;7.43;3.22;;;16.80;66.10;;;;;;5027160;28;20228;-66
2021/06/15 06:23:40;;;;;;;6.53;3.60;;;16.90;66.00;;;;;;5044421;28;20100;-66
2021/06/15 06:26:05;;;;;;;6.10;3.63;;;17.00;65.30;;;;;;5026615;28;20037;-66
2021/06/15 06:28:31;;;;;;;10.02;3.42;;;17.10;64.90;;;;;;5043938;28;20033;-66
2021/06/15 06:30:56;;;;;;;8.60;3.97;;;17.20;64.90;;;;;;5043960;28;20271;-66
2021/06/15 06:33:22;;;;;;;7.68;3.55;;;17.30;64.70;;;;;;5043940;28;20379;-66
2021/06/15 06:35:47;;;;;;;8.93;3.67;;;17.30;64.80;;;;;;5044860;28;20025;-66
2021/06/15 06:38:13;;;;;;;8.63;3.63;;;17.40;64.90;;;;;;5043984;28;20030;-66
2021/06/15 06:40:38;;;;;;;8.27;3.50;;;17.50;65.70;;;;;;5043703;28;20030;-66
2021/06/15 06:43:04;;;;;;;8.85;3.47;;;17.60;65.70;;;;;;5043581;28;20030;-67
2021/06/15 06:45:30;;;;;;;6.13;3.38;;;17.70;64.60;;;;;;5043629;28;20036;-66
2021/06/15 06:47:55;;;;;;;9.10;3.40;;;17.80;64.30;;;;;;5044312;28;20190;-67
2021/06/15 06:50:21;;;;;;;6.13;3.00;;;17.90;64.00;;;;;;5044103;28;20076;-66
2021/06/15 06:52:46;;;;;;;5.75;3.20;;;18.00;63.30;;;;;;5044002;28;20284;-66
2021/06/15 06:55:18;;;;;;;7.38;3.75;;;18.10;62.00;;;;;;5043726;28;20041;-66
2021/06/15 06:57:44;;;;;;;6.18;3.20;;;18.30;62.60;;;;;;5044063;28;20029;-66
2021/06/15 07:00:10;;;;;;;4.07;2.85;;;18.30;62.90;;;;;;5044520;28;20071;-67
2021/06/15 07:02:36;;;;;;;8.10;2.78;;;18.40;61.00;;;;;;5044011;28;20093;-66
2021/06/15 07:05:01;;;;;;;6.22;2.90;;;18.50;61.60;;;;;;5043597;28;20096;-66
2021/06/15 07:07:27;;;;;;;8.60;3.03;;;18.70;62.60;;;;;;5043390;28;20045;-67
2021/06/15 07:09:52;;;;;;;5.45;3.10;;;18.90;61.00;;;;;;5026122;28;20075;-67
2021/06/15 07:12:18;;;;;;;11.57;3.30;;;19.00;62.60;;;;;;5043645;28;20041;-65
2021/06/15 07:14:44;;;;;;;6.07;2.90;;;19.20;61.90;;;;;;5043865;28;20026;-67
2021/06/15 07:17:09;;;;;;;5.65;3.33;;;19.30;59.20;;;;;;5025956;28;20351;-66
2021/06/15 07:19:35;;;;;;;11.40;3.45;;;19.40;59.20;;;;;;5026052;28;20091;-66
2021/06/15 07:22:00;;;;;;;12.45;3.40;;;19.60;57.70;;;;;;5043375;28;20332;-66
2021/06/15 07:24:26;;;;;;;13.48;3.30;;;19.80;56.20;;;;;;5025835;28;20041;-66
2021/06/15 07:26:52;;;;;;;10.32;3.17;;;20.00;55.20;;;;;;5047370;28;20029;-66
2021/06/15 07:29:17;;;;;;;7.68;3.35;;;20.20;57.20;;;;;;5048086;28;20029;-67
2021/06/15 07:31:43;;;;;;;6.65;2.50;;;20.30;55.60;;;;;;5047687;28;20379;-67
2021/06/15 07:34:08;;;;;;;5.65;3.10;;;20.30;55.70;;;;;;5047603;28;20033;-67
2021/06/15 07:36:34;;;;;;;8.63;2.90;;;20.50;55.00;;;;;;5047277;28;20040;-66
2021/06/15 07:38:59;;;;;;;8.45;3.90;;;20.70;56.50;;;;;;5047503;28;20063;-67
2021/06/15 07:41:25;;;;;;;12.23;3.47;;;20.80;50.20;;;;;;5047636;28;20092;-66
2021/06/15 07:43:50;;;;;;;11.45;3.30;;;20.90;51.20;;;;;;5047151;28;20044;-66
2021/06/15 07:46:16;;;;;;;8.77;3.13;;;21.20;53.00;;;;;;5029506;28;20379;-67
2021/06/15 07:48:42;;;;;;;12.88;3.60;;;21.30;53.60;;;;;;5047127;28;20018;-67
2021/06/15 07:51:07;;;;;;;6.13;2.88;;;21.50;54.80;;;;;;5047512;28;20071;-67
2021/06/15 07:53:33;;;;;;;5.47;2.70;;;21.60;52.80;;;;;;5047365;28;20384;-67
2021/06/15 07:55:59;;;;;;;5.50;2.40;;;21.80;50.50;;;;;;5029560;28;20021;-66
2021/06/15 07:58:24;;;;;;;6.78;2.60;;;22.10;50.90;;;;;;5047081;28;20068;-67
2021/06/15 08:00:50;;;;;;;5.93;2.20;;;22.30;47.30;;;;;;5046912;28;20029;-67
2021/06/15 08:03:16;;;;;;;4.35;2.08;;;22.60;47.20;;;;;;5047260;28;20037;-67
2021/06/15 08:05:41;;;;;;;7.68;2.03;;;22.80;44.90;;;;;;5047254;28;20383;-67
2021/06/15 08:08:07;;;;;;;4.03;2.20;;;22.90;41.20;;;;;;5047011;28;20041;-67
2021/06/15 08:10:32;;;;;;;2.97;1.95;;;23.00;39.20;;;;;;5046721;28;20333;-67
2021/06/15 08:12:58;;;;;;;8.40;2.65;;;23.10;40.00;;;;;;5046770;28;20033;-67
2021/06/15 08:15:24;;;;;;;6.63;2.10;;;23.20;41.20;;;;;;5046553;28;20248;-66
2021/06/15 08:17:50;;;;;;;6.20;2.72;;;23.40;43.40;;;;;;5030053;28;20018;-67
2021/06/15 08:20:15;;;;;;;4.65;2.67;;;23.70;45.30;;;;;;5046927;28;20359;-67
2021/06/15 08:22:41;;;;;;;6.75;2.40;;;23.80;45.70;;;;;;5028995;28;20044;-67
2021/06/15 08:25:07;;;;;;;5.47;2.30;;;23.90;45.00;;;;;;5046335;28;20256;-67
2021/06/15 08:27:34;;;;;;;4.60;2.20;;;24.10;44.70;;;;;;5046016;28;20033;-67
2021/06/15 08:30:01;;;;;;;8.32;2.63;;;24.30;45.20;;;;;;5046813;28;20069;-67
2021/06/15 08:32:26;;;;;;;6.82;2.55;;;24.50;44.20;;;;;;5046734;28;20128;-67
2021/06/15 08:34:52;;;;;;;6.90;2.17;;;24.60;44.00;;;;;;5046853;28;20352;-68
2021/06/15 08:37:17;;;;;;;9.65;2.30;;;24.60;43.80;;;;;;5045801;28;20040;-67
2021/06/15 08:39:43;;;;;;;7.50;1.98;;;24.70;43.00;;;;;;5045866;28;20064;-67
2021/06/15 08:42:08;;;;;;;8.20;2.40;;;24.80;42.20;;;;;;5046255;28;20026;-67
2021/06/15 08:44:34;;;;;;;21.08;4.15;;;24.80;43.20;;;;;;5045633;28;20198;-67
2021/06/15 08:47:00;;;;;;;18.42;3.10;;;24.80;42.40;;;;;;5028618;28;20340;-67
2021/06/15 08:49:25;;;;;;;10.38;2.13;;;24.90;41.10;;;;;;5046045;28;20060;-67
2021/06/15 08:51:51;;;;;;;14.48;3.67;;;25.10;39.30;;;;;;5046058;28;20040;-67
2021/06/15 08:54:18;;;;;;;11.10;2.72;;;25.20;40.30;;;;;;5046936;28;20032;-67
2021/06/15 08:56:43;;;;;;;10.88;2.40;;;25.20;41.60;;;;;;5012848;28;20099;-67
2021/06/15 08:59:23;;;;;;;10.85;3.20;;;25.30;41.30;;;;;;5028229;28;20037;-67
2021/06/15 09:01:49;;;;;;;11.07;2.80;;;25.30;40.70;;;;;;5045686;28;20061;-66
2021/06/15 09:04:15;;;;;;;5.47;2.28;;;25.40;39.60;;;;;;5045674;28;20045;-66
2021/06/15 09:06:41;;;;;;;8.20;2.50;;;25.40;39.50;;;;;;5045617;28;20210;-67
2021/06/15 09:09:06;;;;;;;9.27;2.33;;;25.60;39.40;;;;;;5046282;28;20030;-67
2021/06/15 09:11:50;;;;;;;6.88;2.35;;;25.60;40.60;;;;;;5046106;28;20061;-67
2021/06/15 09:14:17;;;;;;;6.57;2.53;;;25.80;40.20;;;;;;5046160;28;20033;-66
2021/06/15 09:16:46;;;;;;;6.43;2.17;;;25.80;39.20;;;;;;5024244;28;20076;-66
2021/06/15 09:19:17;;;;;;;10.90;2.20;;;25.80;41.10;;;;;;5027611;28;20040;-66
2021/06/15 09:21:43;;;;;;;;;;;26.00;41.40;;;;;;5045633;28;20060;-66
2021/06/15 09:24:23;;;;;;;5.72;2.10;;;26.10;39.40;;;;;;5045467;28;19905;-67
2021/06/15 09:27:04;;;;;;;6.38;2.28;;;26.10;40.30;;;;;;5045880;28;20040;-68
2021/06/15 09:29:43;;;;;;;7.25;2.30;;;26.20;38.20;;;;;;5041883;28;20037;-67
2021/06/15 09:32:16;;;;;;;6.47;1.95;;;26.30;37.50;;;;;;5045234;28;20096;-67
2021/06/15 09:35:01;;;;;;;3.10;1.85;;;26.30;40.00;;;;;;5044980;28;20089;-67
2021/06/15 09:37:30;;;;;;;5.32;2.10;;;26.30;38.30;;;;;;5045029;28;20037;-67
2021/06/15 09:39:56;;;;;;;4.68;2.20;;;26.40;35.50;;;;;;5045415;28;20041;-70
2021/06/15 09:42:21;;;;;;;3.63;1.70;;;26.40;39.40;;;;;;5045264;28;20083;-67
2021/06/15 09:44:47;;;;;;;4.20;1.80;;;26.50;38.40;;;;;;5045229;28;20033;-65
2021/06/15 09:47:12;;;;;;;4.80;1.90;;;26.50;36.20;;;;;;5027182;28;20037;-68
2021/06/15 09:49:42;;;;;;;8.20;1.80;;;26.70;36.60;;;;;;5043995;28;20037;-67
2021/06/15 09:52:33;;;;;;;7.28;1.77;;;26.70;38.80;;;;;;5045674;28;20029;-66
2021/06/15 09:54:59;;;;;;;4.40;1.50;;;26.80;38.60;;;;;;5026564;28;20033;-67
2021/06/15 09:57:26;;;;;;;3.05;1.50;;;26.80;37.40;;;;;;5045048;28;20037;-66
2021/06/15 10:00:19;;;;;;;4.15;1.70;;;26.90;36.40;;;;;;5045011;28;20041;-66
2021/06/15 10:02:58;;;;;;;7.97;1.95;;;26.90;34.30;;;;;;5044193;28;20037;-67
2021/06/15 10:05:33;;;;;;;6.47;1.67;;;27.00;32.90;;;;;;5044345;28;20260;-67
2021/06/15 10:08:00;;;;;;;4.20;1.58;;;27.00;34.00;;;;;;5044561;28;20033;-67
2021/06/15 10:10:50;;;;;;;2.55;1.52;;;27.10;37.70;;;;;;5044312;28;20037;-66
2021/06/15 10:13:16;;;;;;;3.00;1.40;;;27.20;34.00;;;;;;5027821;28;20037;-66
2021/06/15 10:15:43;;;;;;;5.45;1.60;;;27.20;35.70;;;;;;5027163;28;20041;-66
2021/06/15 10:18:09;;;;;;;4.05;1.60;;;27.20;35.20;;;;;;5044608;28;20316;-66
2021/06/15 10:20:35;;;;;;;4.03;1.52;;;27.30;35.60;;;;;;5044487;28;20037;-66
2021/06/15 10:23:00;;;;;;;5.50;1.83;;;27.10;34.00;;;;;;5044483;28;20037;-66
2021/06/15 10:25:28;;;;;;;5.47;1.65;;;27.20;33.80;;;;;;5044139;28;20033;-66
2021/06/15 10:27:56;;;;;;;4.80;1.52;;;27.30;35.30;;;;;;5027074;28;20044;-66
2021/06/15 10:30:30;;;;;;;3.28;1.50;;;27.40;35.50;;;;;;5026755;28;20049;-67
2021/06/15 10:32:57;;;;;;;7.63;1.52;;;27.50;34.70;;;;;;5010008;28;20038;-67
2021/06/15 10:35:34;;;;;;;3.50;1.70;;;27.60;34.60;;;;;;5043859;28;20099;-66
2021/06/15 10:38:00;;;;;;;4.25;1.42;;;27.50;33.90;;;;;;5043621;28;20033;-65
2021/06/15 10:40:26;;;;;;;6.70;1.90;;;27.60;31.80;;;;;;5043616;28;20044;-66
2021/06/15 10:43:09;;;;;;;5.43;1.60;;;27.60;32.80;;;;;;5044207;28;20116;-66
2021/06/15 10:45:35;;;;;;;3.67;1.80;;;27.80;33.20;;;;;;5044168;28;20033;-67
2021/06/15 10:48:06;;;;;;;7.22;1.70;;;27.90;32.70;;;;;;5044030;28;20041;-66
2021/06/15 10:50:40;;;;;;;5.03;1.70;;;27.80;32.60;;;;;;5043826;28;20064;-67
2021/06/15 10:53:08;;;;;;;4.55;1.92;;;27.90;33.50;;;;;;5043668;28;20040;-66
2021/06/15 10:56:05;;;;;;;3.03;1.63;;;27.90;32.40;;;;;;5044142;28;20029;-66
2021/06/15 10:58:38;;;;;;;5.78;2.00;;;27.90;36.40;;;;;;5027717;28;20056;-66
2021/06/15 11:01:16;;;;;;;4.57;2.17;;;28.00;37.80;;;;;;5043798;28;20053;-67
2021/06/15 11:03:52;;;;;;;9.48;2.50;;;28.00;36.30;;;;;;5044037;28;20041;-67
2021/06/15 11:06:18;;;;;;;5.93;1.98;;;28.00;37.70;;;;;;5043675;28;20044;-68
2021/06/15 11:08:44;;;;;;;6.15;2.08;;;28.20;36.00;;;;;;5043541;28;20336;-67
2021/06/15 11:11:15;;;;;;;10.88;2.00;;;28.30;35.70;;;;;;5043560;28;20030;-67
2021/06/15 11:13:48;;;;;;;7.13;1.95;;;28.40;38.30;;;;;;5043325;28;20037;-67
2021/06/15 11:16:33;;;;;;;5.25;2.15;;;28.60;38.20;;;;;;5044157;28;20031;-67
2021/06/15 11:19:08;;;;;;;3.35;1.85;;;28.70;36.90;;;;;;5026535;28;20029;-67
2021/06/15 11:21:45;;;;;;;5.20;1.85;;;28.80;35.70;;;;;;5026165;28;20034;-67
2021/06/15 11:24:21;;;;;;;11.38;2.35;;;28.80;35.80;;;;;;5010930;28;20220;-67
2021/06/15 11:26:54;;;;;;;5.57;2.30;;;28.90;36.70;;;;;;5043192;28;20225;-67
2021/06/15 11:29:36;;;;;;;5.85;2.20;;;28.90;36.30;;;;;;5043466;28;20041;-67
2021/06/15 11:32:19;;;;;;;5.78;1.98;;;28.90;35.60;;;;;;5043190;28;20026;-67
2021/06/15 11:34:53;;;;;;;7.10;2.00;;;29.10;35.50;;;;;;5043432;28;20057;-67
2021/06/15 11:37:23;;;;;;;6.53;2.08;;;29.00;34.80;;;;;;5043870;28;20103;-69
2021/06/15 11:39:49;;;;;;;5.75;1.83;;;29.20;36.20;;;;;;5042950;28;20116;-70
2021/06/15 11:42:19;;;;;;;5.25;2.40;;;29.10;34.70;;;;;;5043381;28;20120;-68
2021/06/15 11:44:56;;;;;;;6.68;2.03;;;29.20;34.90;;;;;;5043455;28;20033;-67
2021/06/15 11:47:25;;;;;;;5.53;2.15;;;29.20;35.60;;;;;;5025547;28;20057;-68
2021/06/15 11:50:09;;;;;;;6.60;1.90;;;29.30;37.00;;;;;;5043548;28;20033;-67
2021/06/15 11:52:35;;;;;;;3.22;1.90;;;29.30;37.30;;;;;;5043267;28;20081;-67
2021/06/15 11:55:01;;;;;;;3.72;1.98;;;29.40;36.80;;;;;;5043644;28;20033;-68
2021/06/15 11:57:26;;;;;;;3.65;1.75;;;29.40;35.80;;;;;;5043473;28;20037;-67
2021/06/15 11:59:52;;;;;;;4.57;2.00;;;29.40;37.10;;;;;;5042928;28;20037;-68
2021/06/15 12:02:18;;;;;;;8.13;2.30;;;29.60;36.00;;;;;;5043089;28;20041;-68
2021/06/15 12:05:10;;;;;;;4.15;1.70;;;29.50;32.70;;;;;;5043167;28;20340;-67
2021/06/15 12:07:52;;;;;;;5.15;1.77;;;29.50;32.70;;;;;;5042956;28;20030;-67
2021/06/15 12:10:18;;;;;;;7.97;1.80;;;29.50;33.90;;;;;;5043601;28;20057;-68
2021/06/15 12:13:17;;;;;;;4.65;2.03;;;29.50;34.80;;;;;;5046247;28;20072;-68
2021/06/15 12:16:12;;;;;;;4.55;1.63;;;29.60;33.40;;;;;;5047067;28;20076;-67
2021/06/15 12:18:45;;;;;;;4.95;1.60;;;29.60;36.40;;;;;;5046491;28;20045;-68
2021/06/15 12:21:31;;;;;;;4.10;2.00;;;29.70;35.10;;;;;;5028262;28;20053;-68
2021/06/15 12:24:07;;;;;;;6.35;2.03;;;29.60;34.40;;;;;;5046391;28;20076;-68
2021/06/15 12:26:34;;;;;;;3.80;1.75;;;29.50;34.00;;;;;;5046173;28;20233;-68
2021/06/15 12:29:04;;;;;;;3.67;1.50;;;29.60;35.80;;;;;;5046399;28;20030;-67
2021/06/15 12:31:58;;;;;;;4.63;1.75;;;29.50;33.50;;;;;;5028802;28;20036;-68
2021/06/15 12:34:25;;;;;;;4.93;1.40;;;29.40;33.90;;;;;;5043702;28;20041;-67
2021/06/15 12:36:52;;;;;;;3.38;1.42;;;29.40;33.90;;;;;;5046703;28;20211;-61
2021/06/15 12:39:36;;;;;;;4.53;1.35;;;29.60;34.80;;;;;;5025088;28;20222;-65
2021/06/15 12:42:06;;;;;;;4.20;1.60;;;29.60;32.20;;;;;;5025937;28;20041;-62
2021/06/15 12:44:38;;;;;;;4.30;1.55;;;29.30;32.30;;;;;;5025233;28;20038;-62
2021/06/15 12:47:13;;;;;;;7.57;1.50;;;29.50;33.50;;;;;;5026217;28;20060;-62
2021/06/15 12:49:52;;;;;;;2.97;1.40;;;29.50;34.10;;;;;;5024959;28;20058;-62
2021/06/15 12:52:17;;;;;;;2.72;1.50;;;29.40;33.00;;;;;;5026781;28;20252;-62
2021/06/15 12:54:45;;;;;;;3.20;1.48;;;29.50;34.20;;;;;;5026619;28;20084;-62
2021/06/15 12:57:18;;;;;;;2.88;1.40;;;29.50;30.90;;;;;;5008492;28;20045;-63
2021/06/15 13:00:00;;;;;;;3.67;1.10;;;29.50;33.80;;;;;;5025915;28;20331;-63